Portada
METAR-TAF:

METAR-TAF

Aeroports :

Logronyo, Espanya

latitud: 42-27N, longitud: 002-20W, altitud: 353 m

Observació

L'informe es va fer fa 17 minuts, a les 17:00 UTC
Vent 8 kt del Oest/Nord-Oest, variant entre Oest i Nord
Temperatura 24°C
Humitat 50%
Pressió 1024 hPa
Visibilitat 10 km o més
Escasses núvols a una alçada de 4000 ft

METAR: LELO 181700Z 30008KT 260V350 9999 FEW040 24/13 Q1024

Hora: 19:17 (17:17 UTC)

Pronòstic

L'informe es va fer fa 3 hores i 17 minuts, a les 14:00 UTC
Pronòstic vàlid del 18 a les 15 UTC al 18 a les 24 UTC
Vent 8 kt del Nord-Oest
Visibilitat 10 km o més
Escasses núvols a una alçada de 4000 ft

TAF: LELO 181400Z 1815/1824 32008KT 9999 FEW040

Observacions i pronòstics meteorològics de més de 4000 aeroports (METAR i TAF).

Les estacions disponibles són els punts grocs i vermells al mapa.

Posi el ratolí al punt desitjat per veure el nom de l'estació.

Feu clic per veure les observacions i els pronòstics meteorològics.

Per canviar el mapa: feu clic els botons verds amb una creu de color negre per apropar; al botó verd amb un guió per allunyar la imatge; o en les fletxes verdes per a mapes adjacents.


METAR-TAF: